Antes Fort, Pennsylvania
Current Conditions -  °F | °C
As of 4:54 AM on Friday 21 Nov 2014 (Local Time) from KIPT Reporting Station
Scattered Clouds Scattered Clouds  
Wind Chill: 17°   Ceiling: Unl
Heat Index: 23°   Visibility: 10mi
Dew Point: 10°   Wind: 5mph
Humidity: 58%   Direction: 270°W
Pressure: 30.17"   Gusts: NA
Location:  41.19°N, 77.22°W
Report Text: KIPT 210954Z AUTO 27004KT 10SM SCT046 M05/M12 A3017 RMK AO2 SLP225 T10501122
Loading
Personal Weather Stations






























Interactive Weather Map New forecast layout! Learn more

10-Day Weather Forecast

Advertisements
Track Severe Weather on mobile